Time;durP1;ratioP1;P1;durP2;ratioP2;P2;SDS_P1;SDS_P2;PMS_P1;PMS_P2;Temp;Humidity;BMP_temperature;BMP_pressure;BME280_temperature;BME280_humidity;BME280_pressure;Samples;Min_cycle;Max_cycle;Signal;HPM_P1;HPM_P2
2023/02/15 00:01:35;;;;;;;0.00;0.00;;;;;;;-145.06;100.00;53896.44;10347860;28;20031;-80
2023/02/15 00:06:36;;;;;;;0.00;0.00;;;;;;;-145.06;100.00;53847.84;10345965;28;20026;-81
2023/02/15 00:11:43;;;;;;;0.03;0.03;;;;;;;-145.06;100.00;53872.13;10343715;28;20034;-80
2023/02/15 00:16:44;;;;;;;0.03;0.03;;;;;;;-145.06;100.00;53906.56;10362870;28;20473;-80
2023/02/15 00:21:45;;;;;;;0.00;0.00;;;;;;;-145.06;100.00;53888.34;10332729;28;20540;-80
2023/02/15 00:26:47;;;;;;;0.10;0.10;;;;;;;-145.06;100.00;53859.97;10342269;28;20038;-79
2023/02/15 00:31:48;;;;;;;0.03;0.03;;;;;;;-145.06;100.00;53884.28;10348867;28;20380;-80
2023/02/15 00:36:49;;;;;;;0.10;0.10;;;;;;;-145.06;100.00;53851.88;10343912;28;20033;-78
2023/02/15 00:41:49;;;;;;;0.10;0.10;;;;;;;-145.06;100.00;53910.63;10346832;28;20031;-80
2023/02/15 00:46:49;;;;;;;0.10;0.10;;;;;;;-145.06;100.00;53888.34;10345546;28;20030;-79
2023/02/15 00:51:50;;;;;;;0.05;0.05;;;;;;;-145.06;100.00;53868.09;10348228;28;20053;-80
2023/02/15 00:56:50;;;;;;;0.10;0.10;;;;;;;-145.06;100.00;53866.06;10358822;28;20054;-80
2023/02/15 01:01:51;;;;;;;0.00;0.00;;;;;;;-145.06;100.00;53884.28;10353407;28;20042;-80
2023/02/15 01:06:51;;;;;;;0.10;0.10;;;;;;;-145.06;100.00;53853.91;10349213;28;20034;-80
2023/02/15 01:11:51;;;;;;;0.00;0.00;;;;;;;-145.06;100.00;53868.09;10352471;28;20030;-80
2023/02/15 01:16:52;;;;;;;0.10;0.10;;;;;;;-145.06;100.00;53855.94;10351167;28;20023;-78
2023/02/15 01:21:52;;;;;;;0.10;0.10;;;;;;;-145.06;100.00;53892.38;10350749;28;20831;-79
2023/02/15 01:26:52;;;;;;;0.00;0.00;;;;;;;-145.06;100.00;53874.16;10351219;28;20273;-80
2023/02/15 01:31:52;;;;;;;0.00;0.00;;;;;;;-145.06;100.00;53892.38;10347058;28;20030;-79
2023/02/15 01:36:53;;;;;;;0.00;0.00;;;;;;;-145.06;100.00;53888.34;10344507;28;20030;-80
2023/02/15 01:41:53;;;;;;;0.03;0.03;;;;;;;-145.06;100.00;53872.13;10346507;28;20034;-79
2023/02/15 01:46:54;;;;;;;0.00;0.00;;;;;;;-145.06;100.00;53898.47;10343939;28;20390;-80
2023/02/15 01:51:55;;;;;;;0.00;0.00;;;;;;;-145.06;100.00;53878.22;10347619;28;20464;-80
2023/02/15 01:57:02;;;;;;;0.10;0.10;;;;;;;-145.06;100.00;53898.47;10364581;28;20226;-81
2023/02/15 02:02:05;;;;;;;0.10;0.10;;;;;;;-145.06;100.00;53876.19;10341641;28;20032;-79
2023/02/15 02:07:08;;;;;;;0.10;0.10;;;;;;;-145.06;100.00;53851.88;10347535;28;20034;-81
2023/02/15 02:12:09;;;;;;;0.05;0.05;;;;;;;-145.06;100.00;53868.09;10356306;28;20030;-80
2023/02/15 02:17:09;;;;;;;0.00;0.00;;;;;;;-145.06;100.00;53862.00;10344494;28;20038;-79
2023/02/15 02:22:31;;;;;;;0.00;0.00;;;;;;;-145.06;100.00;53892.38;10361542;28;20042;-78
2023/02/15 02:27:46;;;;;;;0.08;0.08;;;;;;;-145.06;100.00;53902.50;10336547;28;20471;-79
2023/02/15 02:33:11;;;;;;;0.00;0.00;;;;;;;-145.06;100.00;53912.63;10348647;28;20482;-80
2023/02/15 02:38:28;;;;;;;0.00;0.00;;;;;;;-145.06;100.00;53912.63;10347104;28;20061;-81
2023/02/15 02:44:02;;;;;;;0.00;0.00;;;;;;;-145.06;100.00;53855.94;10351884;23;20051;-88
2023/02/15 02:49:03;;;;;;;0.00;0.00;;;;;;;-145.06;100.00;53872.13;10326940;28;20046;-90
2023/02/15 02:54:06;;;;;;;0.00;0.00;;;;;;;-145.06;100.00;53896.44;10306585;28;20560;-89
2023/02/15 02:59:17;;;;;;;0.00;0.00;;;;;;;-145.06;100.00;53882.25;10295870;28;20038;-90
2023/02/15 03:04:22;;;;;;;0.00;0.00;;;;;;;-145.06;100.00;53896.44;10286420;28;20383;-90
2023/02/15 03:09:43;;;;;;;0.00;0.00;;;;;;;-145.06;100.00;53849.84;10311761;28;20027;-90
2023/02/15 03:14:48;;;;;;;0.00;0.00;;;;;;;-145.06;100.00;53936.94;10311726;28;20038;-90
2023/02/15 03:19:52;;;;;;;0.03;0.03;;;;;;;-145.06;100.00;53888.34;10309490;28;20038;-91
2023/02/15 03:25:06;;;;;;;0.00;0.00;;;;;;;-145.06;100.00;53910.63;10309901;28;20102;-91
2023/02/15 03:30:08;;;;;;;0.03;0.03;;;;;;;-145.06;100.00;53914.66;10304834;28;20508;-92
2023/02/15 03:35:09;;;;;;;0.00;0.00;;;;;;;-145.06;100.00;53886.31;10308436;28;20034;-91
2023/02/15 03:41:09;;;;;;;0.10;0.10;;;;;;;-145.06;100.00;53882.25;10324774;28;20034;-91
2023/02/15 03:45:38;;;;;;;0.03;0.03;;;;;;;-145.06;100.00;53862.00;10323488;28;20490;-91
2023/02/15 03:55:59;;;;;;;0.10;0.10;;;;;;;-145.06;100.00;53892.38;10312491;28;20410;-91
2023/02/15 04:06:23;;;;;;;0.00;0.00;;;;;;;-145.06;100.00;53884.28;10316440;28;20030;-90
2023/02/15 04:11:24;;;;;;;0.00;0.00;;;;;;;-145.06;100.00;53855.94;10313381;28;20483;-90
2023/02/15 04:16:25;;;;;;;0.00;0.00;;;;;;;-145.06;100.00;53876.19;10307037;28;20630;-89
2023/02/15 04:26:52;;;;;;;0.00;0.00;;;;;;;-145.06;100.00;53916.69;10323405;28;20472;-91
2023/02/15 04:31:54;;;;;;;0.00;0.00;;;;;;;-145.06;100.00;53876.19;10304627;28;20027;-90
2023/02/15 04:36:54;;;;;;;0.00;0.00;;;;;;;-145.06;100.00;53884.28;10311134;28;20037;-89
2023/02/15 04:41:55;;;;;;;0.00;0.00;;;;;;;-145.06;100.00;53904.53;10307493;28;20038;-89
2023/02/15 04:46:55;;;;;;;0.05;0.05;;;;;;;-145.06;100.00;53864.03;10312014;28;20537;-88
2023/02/15 04:51:55;;;;;;;0.00;0.00;;;;;;;-145.06;100.00;53878.22;10322223;28;20486;-89
2023/02/15 04:56:55;;;;;;;0.00;0.00;;;;;;;-145.06;100.00;53886.31;10308666;28;20030;-89
2023/02/15 05:01:56;;;;;;;0.10;0.10;;;;;;;-145.06;100.00;53845.81;10312887;28;20033;-89
2023/02/15 05:06:56;;;;;;;0.10;0.10;;;;;;;-145.06;100.00;53884.28;10319024;28;20089;-88
2023/02/15 05:11:56;;;;;;;0.00;0.00;;;;;;;-145.06;100.00;53896.44;10327228;28;20034;-89
2023/02/15 05:17:00;;;;;;;0.00;0.00;;;;;;;-145.06;100.00;53874.16;10330662;28;20265;-89
2023/02/15 05:22:00;;;;;;;0.10;0.10;;;;;;;-145.06;100.00;53932.88;10312578;28;20261;-89
2023/02/15 05:32:20;;;;;;;0.10;0.10;;;;;;;-145.06;100.00;53888.34;10316762;28;20030;-88
2023/02/15 05:37:20;;;;;;;0.10;0.10;;;;;;;-145.06;100.00;53908.59;10312174;28;20034;-89
2023/02/15 05:42:20;;;;;;;0.10;0.10;;;;;;;-145.06;100.00;53928.84;10326230;28;20508;-89
2023/02/15 05:47:20;;;;;;;0.00;0.00;;;;;;;-145.06;100.00;53892.38;10313838;28;20868;-88
2023/02/15 05:52:21;;;;;;;0.00;0.00;;;;;;;-145.06;100.00;53922.75;10307259;28;20045;-88
2023/02/15 05:57:21;;;;;;;0.00;0.00;;;;;;;-145.06;100.00;53878.22;10307109;28;20084;-88
2023/02/15 06:02:22;;;;;;;0.00;0.00;;;;;;;-145.06;100.00;53857.97;10305320;28;20037;-88
2023/02/15 06:07:22;;;;;;;0.05;0.05;;;;;;;-145.06;100.00;53908.59;10327212;28;20042;-86
2023/02/15 06:12:22;;;;;;;0.10;0.10;;;;;;;-145.06;100.00;53880.22;10307230;28;20279;-86
2023/02/15 06:17:23;;;;;;;0.05;0.05;;;;;;;-145.06;100.00;53912.63;10324634;28;20618;-88
2023/02/15 06:22:23;;;;;;;0.00;0.00;;;;;;;-145.06;100.00;53896.44;10308020;28;20039;-88
2023/02/15 06:27:23;;;;;;;0.00;0.00;;;;;;;-145.06;100.00;53890.38;10308595;28;20273;-88
2023/02/15 06:32:23;;;;;;;0.00;0.00;;;;;;;-145.06;100.00;53880.22;10296747;28;20093;-88
2023/02/15 06:37:24;;;;;;;0.00;0.00;;;;;;;-145.06;100.00;53886.31;10311096;28;20117;-88
2023/02/15 06:42:24;;;;;;;0.00;0.00;;;;;;;-145.06;100.00;53884.28;10309323;28;20034;-88
2023/02/15 06:47:24;;;;;;;0.10;0.10;;;;;;;-145.06;100.00;53886.31;10310087;28;20077;-88
2023/02/15 06:52:25;;;;;;;0.00;0.00;;;;;;;-145.06;100.00;53924.78;10312923;28;20033;-88
2023/02/15 06:57:25;;;;;;;0.00;0.00;;;;;;;-145.06;100.00;53900.50;10312744;28;20034;-88
2023/02/15 07:02:26;;;;;;;0.00;0.00;;;;;;;-145.06;100.00;53920.75;10312081;28;20045;-88
2023/02/15 07:07:26;;;;;;;0.07;0.07;;;;;;;-145.06;100.00;53888.34;10303047;28;20057;-89
2023/02/15 07:12:42;;;;;;;0.00;0.00;;;;;;;-145.06;100.00;53908.59;10329492;28;20281;-89
2023/02/15 07:17:43;;;;;;;0.05;0.05;;;;;;;-145.06;100.00;53888.34;10307553;28;20284;-87
2023/02/15 07:22:43;;;;;;;0.10;0.10;;;;;;;-145.06;100.00;53878.22;10312030;28;20029;-86
2023/02/15 07:27:45;;;;;;;0.00;0.00;;;;;;;-145.06;100.00;53880.22;10311978;28;20059;-85
2023/02/15 07:38:04;;;;;;;0.00;0.00;;;;;;;-145.06;100.00;53880.22;10330402;28;20034;-88
2023/02/15 07:43:05;;;;;;;0.00;0.00;;;;;;;-145.06;100.00;53841.75;10310668;28;20234;-88
2023/02/15 07:48:06;;;;;;;0.00;0.00;;;;;;;-145.06;100.00;53920.75;10327260;28;20022;-89
2023/02/15 07:53:06;;;;;;;0.00;0.00;;;;;;;-145.06;100.00;53868.09;10302704;28;20242;-89
2023/02/15 07:58:07;;;;;;;0.00;0.00;;;;;;;-145.06;100.00;53888.34;10311844;28;20060;-88
2023/02/15 08:03:13;;;;;;;0.03;0.03;;;;;;;-145.06;100.00;53868.09;10309176;28;20041;-89
2023/02/15 08:08:29;;;;;;;0.10;0.10;;;;;;;-145.06;100.00;53882.25;10304980;28;20030;-88
2023/02/15 08:13:29;;;;;;;0.00;0.00;;;;;;;-145.06;100.00;53884.28;10306636;28;20034;-89
2023/02/15 08:18:29;;;;;;;0.10;0.10;;;;;;;-145.06;100.00;53896.44;10312220;28;20030;-89
2023/02/15 08:23:30;;;;;;;0.08;0.08;;;;;;;-145.06;100.00;53894.41;10318878;28;20026;-88
2023/02/15 08:28:31;;;;;;;0.03;0.03;;;;;;;-145.06;100.00;53878.22;10324270;28;20062;-87
2023/02/15 08:33:31;;;;;;;0.00;0.00;;;;;;;-145.06;100.00;53910.63;10311389;28;20041;-86
2023/02/15 08:38:32;;;;;;;0.00;0.00;;;;;;;-145.06;100.00;53857.97;10304940;28;20430;-86
2023/02/15 08:43:32;;;;;;;0.10;0.10;;;;;;;-145.06;100.00;53908.59;10301107;28;20030;-86
2023/02/15 08:48:33;;;;;;;0.00;0.00;;;;;;;-145.06;100.00;53839.72;10310735;28;20458;-89
2023/02/15 08:53:33;;;;;;;0.00;0.00;;;;;;;-145.06;100.00;53902.50;10344340;23;20050;-90
2023/02/15 08:58:34;;;;;;;0.00;0.00;;;;;;;-145.06;100.00;53900.50;10350563;28;20623;-90
2023/02/15 09:03:34;;;;;;;0.00;0.00;;;;;;;-145.06;100.00;53878.22;10344054;28;20515;-89
2023/02/15 09:08:35;;;;;;;0.00;0.00;;;;;;;-145.06;100.00;53900.50;10337488;28;20034;-90
2023/02/15 09:13:35;;;;;;;0.00;0.00;;;;;;;-145.06;100.00;53898.47;10336470;28;20054;-91
2023/02/15 09:18:37;;;;;;;0.00;0.00;;;;;;;-145.06;100.00;53886.31;10343285;28;20579;-91
2023/02/15 09:23:38;;;;;;;0.00;0.00;;;;;;;-145.06;100.00;53886.31;10345436;28;20058;-91
2023/02/15 09:28:39;;;;;;;0.00;0.00;;;;;;;-145.06;100.00;53835.69;10334781;28;20046;-92
2023/02/15 09:33:40;;;;;;;0.00;0.00;;;;;;;-145.06;100.00;53892.38;10340160;28;20384;-91
2023/02/15 09:38:40;;;;;;;0.00;0.00;;;;;;;-145.06;100.00;53890.38;10332090;28;20150;-90
2023/02/15 09:44:19;;;;;;;0.00;0.00;;;;;;;-145.06;100.00;53900.50;10343338;28;20061;-90
2023/02/15 09:49:50;;;;;;;0.10;0.10;;;;;;;-145.06;100.00;53898.47;10342361;28;20038;-91
2023/02/15 09:55:07;;;;;;;0.00;0.00;;;;;;;-145.06;100.00;53855.94;10329570;28;20112;-91
2023/02/15 10:00:28;;;;;;;0.00;0.00;;;;;;;-145.06;100.00;53922.75;10352745;28;20088;-90
2023/02/15 10:05:42;;;;;;;0.05;0.05;;;;;;;-145.06;100.00;53882.25;10337619;28;20042;-90
2023/02/15 10:11:38;;;;;;;0.00;0.00;;;;;;;-145.06;100.00;53884.28;10337267;28;20510;-90
2023/02/15 10:16:49;;;;;;;0.00;0.00;;;;;;;-145.06;100.00;53866.06;10349631;28;20041;-90
2023/02/15 10:22:07;;;;;;;0.00;0.00;;;;;;;-145.06;100.00;53868.09;10331608;28;20037;-90
2023/02/15 10:27:15;;;;;;;0.00;0.00;;;;;;;-145.06;100.00;53859.97;10342568;28;20107;-89
2023/02/15 10:32:23;;;;;;;0.00;0.00;;;;;;;-145.06;100.00;53833.66;10341802;28;20537;-90
2023/02/15 10:37:41;;;;;;;0.00;0.00;;;;;;;-145.06;100.00;53890.38;10336771;28;20151;-90
2023/02/15 10:43:06;;;;;;;0.00;0.00;;;;;;;-145.06;100.00;53870.09;10331648;28;20041;-90
2023/02/15 10:48:40;;;;;;;0.00;0.00;;;;;;;-145.06;100.00;53888.34;10329416;28;20124;-90
2023/02/15 10:53:57;;;;;;;0.00;0.00;;;;;;;-145.06;100.00;53876.19;10354698;28;20032;-90
2023/02/15 10:59:22;;;;;;;0.00;0.00;;;;;;;-145.06;100.00;53874.16;10338004;28;20502;-90
2023/02/15 11:04:41;;;;;;;0.00;0.00;;;;;;;-145.06;100.00;53868.09;10327747;28;20520;-89
2023/02/15 11:09:47;;;;;;;0.00;0.00;;;;;;;-145.06;100.00;53896.44;10329647;28;20026;-90
2023/02/15 11:14:50;;;;;;;0.00;0.00;;;;;;;-145.06;100.00;53892.38;10332812;28;20034;-89
2023/02/15 11:20:09;;;;;;;0.00;0.00;;;;;;;-145.06;100.00;53900.50;10351628;28;20030;-90
2023/02/15 11:25:24;;;;;;;0.00;0.00;;;;;;;-145.06;100.00;53868.09;10327653;28;20467;-91
2023/02/15 11:30:33;;;;;;;0.00;0.00;;;;;;;-145.06;100.00;53857.97;10335021;28;20040;-90
2023/02/15 11:35:52;;;;;;;0.00;0.00;;;;;;;-145.06;100.00;53908.59;10317326;28;20085;-90
2023/02/15 11:40:59;;;;;;;0.00;0.00;;;;;;;-145.06;100.00;53876.19;10319017;28;20038;-90
2023/02/15 11:46:00;;;;;;;0.00;0.00;;;;;;;-145.06;100.00;53882.25;10329592;28;20026;-90
2023/02/15 11:51:02;;;;;;;0.00;0.00;;;;;;;-145.06;100.00;53870.09;10328703;28;20078;-89
2023/02/15 11:56:04;;;;;;;0.00;0.00;;;;;;;-145.06;100.00;53894.41;10328562;28;20133;-90
2023/02/15 12:01:24;;;;;;;0.00;0.00;;;;;;;-145.06;100.00;53843.78;10335481;28;20116;-90
2023/02/15 12:06:32;;;;;;;0.00;0.00;;;;;;;-145.06;100.00;53874.16;10338964;28;20040;-90
2023/02/15 12:11:38;;;;;;;0.00;0.00;;;;;;;-145.06;100.00;53870.09;10339796;28;20034;-92
2023/02/15 12:16:54;;;;;;;0.00;0.00;;;;;;;-145.06;100.00;53872.13;10317891;28;20042;-91
2023/02/15 12:21:56;;;;;;;0.00;0.00;;;;;;;-145.06;100.00;53862.00;10335877;28;20529;-91
2023/02/15 12:27:02;;;;;;;0.00;0.00;;;;;;;-145.06;100.00;53849.84;10330257;28;20034;-90
2023/02/15 12:32:03;;;;;;;0.00;0.00;;;;;;;-145.06;100.00;53841.75;10331032;28;20038;-91
2023/02/15 12:37:14;;;;;;;0.00;0.00;;;;;;;-145.06;100.00;53892.38;10342395;28;20026;-90
2023/02/15 12:42:16;;;;;;;0.00;0.00;;;;;;;-145.06;100.00;53843.78;10351807;28;20402;-90
2023/02/15 12:47:16;;;;;;;0.00;0.00;;;;;;;-145.06;100.00;53876.19;10358850;28;20029;-91
2023/02/15 12:52:20;;;;;;;0.00;0.00;;;;;;;-145.06;100.00;53851.88;10337638;28;20458;-91
2023/02/15 12:57:28;;;;;;;0.00;0.00;;;;;;;-145.06;100.00;53847.84;10339443;28;20038;-90
2023/02/15 13:02:43;;;;;;;0.00;0.00;;;;;;;-145.06;100.00;53870.09;10341708;28;20414;-91
2023/02/15 13:07:57;;;;;;;;;;;;;;;-145.06;100.00;53849.84;10332823;28;20038;-89
2023/02/15 13:12:58;;;;;;;0.00;0.00;;;;;;;-145.06;100.00;53855.94;10342882;28;19918;-90
2023/02/15 13:18:01;;;;;;;0.00;0.00;;;;;;;-145.06;100.00;53855.94;10332357;28;20034;-91
2023/02/15 13:23:13;;;;;;;0.00;0.00;;;;;;;-145.06;100.00;53841.75;10329906;28;20038;-91
2023/02/15 13:28:17;;;;;;;0.00;0.00;;;;;;;-145.06;100.00;53884.28;10346543;28;20033;-90
2023/02/15 13:33:26;;;;;;;0.00;0.00;;;;;;;-145.06;100.00;53890.38;10330319;28;20033;-90
2023/02/15 13:38:59;;;;;;;0.00;0.00;;;;;;;-145.06;100.00;53870.09;10336419;28;20528;-91
2023/02/15 13:44:19;;;;;;;0.00;0.00;;;;;;;-145.06;100.00;53884.28;10339983;28;20069;-91
2023/02/15 13:49:50;;;;;;;0.00;0.00;;;;;;;-145.06;100.00;53847.84;10334171;28;20038;-91
2023/02/15 13:55:11;;;;;;;0.00;0.00;;;;;;;-145.06;100.00;53918.72;10327797;28;20034;-91
2023/02/15 14:00:27;;;;;;;0.00;0.00;;;;;;;-145.06;100.00;53855.94;10345687;28;20490;-91
2023/02/15 14:05:39;;;;;;;0.10;0.10;;;;;;;-145.06;100.00;53886.31;10331034;28;20030;-90
2023/02/15 14:10:56;;;;;;;0.00;0.00;;;;;;;-145.06;100.00;53876.19;10329492;28;20038;-90
2023/02/15 14:16:21;;;;;;;0.00;0.00;;;;;;;-145.06;100.00;53898.47;10323929;28;20065;-90
2023/02/15 14:21:24;;;;;;;0.00;0.00;;;;;;;-145.06;100.00;53904.53;10351948;28;20069;-90
2023/02/15 14:27:03;;;;;;;0.00;0.00;;;;;;;-145.06;100.00;53912.63;10325423;28;20049;-89
2023/02/15 14:32:41;;;;;;;0.00;0.00;;;;;;;-145.06;100.00;53884.28;10325655;28;20042;-91
2023/02/15 14:38:02;;;;;;;0.03;0.03;;;;;;;-145.06;100.00;53920.75;10328508;28;20072;-91
2023/02/15 14:43:11;;;;;;;0.00;0.00;;;;;;;-145.06;100.00;53884.28;10330046;28;20026;-91
2023/02/15 14:48:23;;;;;;;0.00;0.00;;;;;;;-145.06;100.00;53884.28;10333231;28;20034;-90
2023/02/15 14:53:29;;;;;;;0.00;0.00;;;;;;;-145.06;100.00;53876.19;10332067;28;20070;-91
2023/02/15 14:58:29;;;;;;;0.00;0.00;;;;;;;-145.06;100.00;53880.22;10348984;23;20066;-89
2023/02/15 15:03:29;;;;;;;0.00;0.00;;;;;;;-145.06;100.00;53886.31;10313165;28;20042;-90
2023/02/15 15:08:37;;;;;;;0.00;0.00;;;;;;;-145.06;100.00;53904.53;10306477;28;20038;-88
2023/02/15 15:13:51;;;;;;;0.00;0.00;;;;;;;-145.06;100.00;53892.38;10312109;28;20030;-89
2023/02/15 15:18:51;;;;;;;0.00;0.00;;;;;;;-145.06;100.00;53890.38;10314504;28;20042;-89
2023/02/15 15:23:52;;;;;;;0.00;0.00;;;;;;;-145.06;100.00;53874.16;10306679;28;20035;-89
2023/02/15 15:28:54;;;;;;;0.00;0.00;;;;;;;-145.06;100.00;53892.38;10305488;28;20384;-89
2023/02/15 15:34:23;;;;;;;0.00;0.00;;;;;;;-145.06;100.00;53928.84;10283611;28;20058;-89
2023/02/15 15:39:42;;;;;;;0.00;0.00;;;;;;;-145.06;100.00;53908.59;10303560;28;20038;-89
2023/02/15 15:45:15;;;;;;;0.00;0.00;;;;;;;-145.06;100.00;53908.59;10304389;28;20034;-89
2023/02/15 15:50:19;;;;;;;0.00;0.00;;;;;;;-145.06;100.00;53872.13;10300797;28;20085;-89
2023/02/15 15:55:23;;;;;;;0.00;0.00;;;;;;;-145.06;100.00;53888.34;10283832;28;20541;-87
2023/02/15 16:00:36;;;;;;;0.00;0.00;;;;;;;-145.06;100.00;53888.34;10303607;28;20070;-88
2023/02/15 16:05:52;;;;;;;0.00;0.00;;;;;;;-145.06;100.00;53896.44;10298155;28;20034;-90
2023/02/15 16:10:52;;;;;;;0.00;0.00;;;;;;;-145.06;100.00;53900.50;10292718;28;20034;-91
2023/02/15 16:15:55;;;;;;;0.00;0.00;;;;;;;-145.06;100.00;53894.41;10290241;28;20113;-91
2023/02/15 16:21:01;;;;;;;0.00;0.00;;;;;;;-145.06;100.00;53904.53;10294550;28;20470;-91
2023/02/15 16:26:17;;;;;;;0.00;0.00;;;;;;;-145.06;100.00;53916.69;10298527;28;20027;-90
2023/02/15 16:31:18;;;;;;;0.00;0.00;;;;;;;-145.06;100.00;53884.28;10309474;28;20510;-90
2023/02/15 16:36:26;;;;;;;0.00;0.00;;;;;;;-145.06;100.00;53894.41;10314907;28;20066;-90
2023/02/15 16:41:29;;;;;;;0.00;0.00;;;;;;;-145.06;100.00;53894.41;10316380;28;20396;-91
2023/02/15 16:46:39;;;;;;;0.00;0.00;;;;;;;-145.06;100.00;53930.88;10312417;28;20499;-91
2023/02/15 16:51:42;;;;;;;0.00;0.00;;;;;;;-145.06;100.00;53904.53;10313414;28;20035;-89
2023/02/15 16:56:45;;;;;;;0.00;0.00;;;;;;;-145.06;100.00;53894.41;10308613;28;20533;-91
2023/02/15 17:01:46;;;;;;;0.03;0.03;;;;;;;-145.06;100.00;53910.63;10297114;28;20046;-91
2023/02/15 17:07:13;;;;;;;0.00;0.00;;;;;;;-145.06;100.00;53906.56;10308696;28;20519;-90
2023/02/15 17:12:46;;;;;;;0.00;0.00;;;;;;;-145.06;100.00;53906.56;10307884;28;20034;-91
2023/02/15 17:17:47;;;;;;;0.00;0.00;;;;;;;-145.06;100.00;53932.88;10302016;28;20455;-89
2023/02/15 17:22:47;;;;;;;0.00;0.00;;;;;;;-145.06;100.00;53892.38;10315535;28;20026;-91
2023/02/15 17:27:54;;;;;;;0.00;0.00;;;;;;;-145.06;100.00;53922.75;10313897;28;20034;-90
2023/02/15 17:32:58;;;;;;;0.00;0.00;;;;;;;-145.06;100.00;53926.81;10297046;28;20027;-91
2023/02/15 17:38:16;;;;;;;0.00;0.00;;;;;;;-145.06;100.00;53884.28;10306682;28;20126;-90
2023/02/15 17:43:16;;;;;;;0.00;0.00;;;;;;;-145.06;100.00;53888.34;10313134;28;20421;-91
2023/02/15 17:48:22;;;;;;;0.00;0.00;;;;;;;-145.06;100.00;53884.28;10304430;28;20035;-91
2023/02/15 17:53:24;;;;;;;0.00;0.00;;;;;;;-145.06;100.00;53904.53;10296691;28;20322;-91
2023/02/15 17:58:24;;;;;;;0.00;0.00;;;;;;;-145.06;100.00;53868.09;10309533;28;20123;-91
2023/02/15 18:14:11;;;;;;;0.00;0.00;;;;;;;-145.06;100.00;53862.00;10309477;28;20502;-91
2023/02/15 18:19:17;;;;;;;0.00;0.00;;;;;;;-145.06;100.00;53827.59;10286531;28;20246;-91
2023/02/15 18:24:20;;;;;;;0.00;0.00;;;;;;;-145.06;100.00;53900.50;10296168;28;20032;-91
2023/02/15 18:29:21;;;;;;;0.00;0.00;;;;;;;-145.06;100.00;53920.75;10310423;28;20100;-91
2023/02/15 18:34:27;;;;;;;0.00;0.00;;;;;;;-145.06;100.00;53900.50;10294793;28;20031;-91
2023/02/15 18:39:49;;;;;;;0.00;0.00;;;;;;;-145.06;100.00;53878.22;10306749;28;20321;-91
2023/02/15 18:44:54;;;;;;;0.00;0.00;;;;;;;-145.06;100.00;53904.53;10304243;28;20023;-91
2023/02/15 18:49:54;;;;;;;;;;;;;;;-145.06;100.00;53894.41;10291623;28;20077;-91
2023/02/15 18:55:01;;;;;;;0.00;0.00;;;;;;;-145.06;100.00;53896.44;10296696;28;20005;-91
2023/02/15 19:00:02;;;;;;;0.00;0.00;;;;;;;-145.06;100.00;53882.25;10310212;28;20125;-91
2023/02/15 19:05:02;;;;;;;0.00;0.00;;;;;;;-145.06;100.00;53882.25;10286900;28;20566;-91
2023/02/15 19:10:05;;;;;;;0.00;0.00;;;;;;;-145.06;100.00;53874.16;10307631;28;20034;-92
2023/02/15 19:15:06;;;;;;;0.00;0.00;;;;;;;-145.06;100.00;53912.63;10307514;28;20093;-91
2023/02/15 19:20:08;;;;;;;0.00;0.00;;;;;;;-145.06;100.00;53864.03;10296789;28;20173;-91
2023/02/15 19:25:16;;;;;;;0.00;0.00;;;;;;;-145.06;100.00;53896.44;10298003;28;20034;-91
2023/02/15 19:30:20;;;;;;;0.00;0.00;;;;;;;-145.06;100.00;53896.44;10281780;28;20030;-91
2023/02/15 19:35:25;;;;;;;0.00;0.00;;;;;;;-145.06;100.00;53928.84;10309700;28;20058;-91
2023/02/15 19:40:28;;;;;;;0.00;0.00;;;;;;;-145.06;100.00;53898.47;10289321;28;20046;-89
2023/02/15 19:45:30;;;;;;;0.00;0.00;;;;;;;-145.06;100.00;53906.56;10298941;28;20121;-91
2023/02/15 19:50:32;;;;;;;0.00;0.00;;;;;;;-145.06;100.00;53906.56;10309749;28;20169;-90
2023/02/15 19:55:34;;;;;;;0.00;0.00;;;;;;;-145.06;100.00;53912.63;10313241;28;20088;-89
2023/02/15 20:00:35;;;;;;;0.00;0.00;;;;;;;-145.06;100.00;53912.63;10304654;28;20125;-89
2023/02/15 20:05:39;;;;;;;0.00;0.00;;;;;;;-145.06;100.00;53918.72;10293819;28;20128;-91
2023/02/15 20:10:39;;;;;;;0.00;0.00;;;;;;;-145.06;100.00;53916.69;10292094;28;20823;-91
2023/02/15 20:15:39;;;;;;;0.00;0.00;;;;;;;-145.06;100.00;53904.53;10285443;28;20120;-91
2023/02/15 20:20:52;;;;;;;0.00;0.00;;;;;;;-145.06;100.00;53928.84;10294375;28;20039;-91
2023/02/15 20:25:53;;;;;;;0.00;0.00;;;;;;;-145.06;100.00;53900.50;10298311;28;20025;-91
2023/02/15 20:30:54;;;;;;;0.00;0.00;;;;;;;-145.06;100.00;53874.16;10291231;28;20042;-91
2023/02/15 20:35:54;;;;;;;0.00;0.00;;;;;;;-145.06;100.00;53892.38;10298504;28;20042;-91
2023/02/15 20:46:16;;;;;;;0.00;0.00;;;;;;;-145.06;100.00;53908.59;10295617;28;20034;-92
2023/02/15 20:51:19;;;;;;;0.00;0.00;;;;;;;-145.06;100.00;53902.50;10289880;28;20031;-91
2023/02/15 20:56:22;;;;;;;0.00;0.00;;;;;;;-145.06;100.00;53876.19;10291583;28;20026;-91
2023/02/15 21:01:22;;;;;;;0.00;0.00;;;;;;;-145.06;100.00;53916.69;10373295;23;20111;-81
2023/02/15 21:06:22;;;;;;;0.00;0.00;;;;;;;-145.06;100.00;53890.38;10332341;28;20105;-80
2023/02/15 21:11:23;;;;;;;0.00;0.00;;;;;;;-145.06;100.00;53908.59;10365150;28;20277;-81
2023/02/15 21:16:23;;;;;;;0.00;0.00;;;;;;;-145.06;100.00;53908.59;10362462;28;20042;-81
2023/02/15 21:21:23;;;;;;;0.00;0.00;;;;;;;-145.06;100.00;53910.63;10360964;28;20376;-81
2023/02/15 21:26:24;;;;;;;0.00;0.00;;;;;;;-145.06;100.00;53888.34;10367629;28;20396;-79
2023/02/15 21:31:24;;;;;;;0.00;0.00;;;;;;;-145.06;100.00;53859.97;10361566;28;20034;-80
2023/02/15 21:36:26;;;;;;;0.00;0.00;;;;;;;-145.06;100.00;53890.38;10362873;28;20061;-81
2023/02/15 21:52:10;;;;;;;0.00;0.00;;;;;;;-145.06;100.00;53910.63;10369383;28;20034;-81
2023/02/15 21:57:15;;;;;;;0.10;0.10;;;;;;;-145.06;100.00;53898.47;10329919;28;20045;-81
2023/02/15 22:02:27;;;;;;;0.00;0.00;;;;;;;-145.06;100.00;53912.63;10358351;28;20033;-81
2023/02/15 22:07:27;;;;;;;0.00;0.00;;;;;;;-145.06;100.00;53862.00;10362887;28;20042;-80
2023/02/15 22:12:27;;;;;;;0.00;0.00;;;;;;;-145.06;100.00;53926.81;10348723;28;20792;-81
2023/02/15 22:17:28;;;;;;;0.00;0.00;;;;;;;-145.06;100.00;53916.69;10367500;28;20038;-82
2023/02/15 22:22:29;;;;;;;0.00;0.00;;;;;;;-145.06;100.00;53908.59;10358452;28;20034;-81
2023/02/15 22:27:36;;;;;;;0.00;0.00;;;;;;;-145.06;100.00;53904.53;10337358;28;20027;-80
2023/02/15 22:32:36;;;;;;;0.00;0.00;;;;;;;-145.06;100.00;53910.63;10349984;28;20311;-81
2023/02/15 22:37:37;;;;;;;0.00;0.00;;;;;;;-145.06;100.00;53900.50;10337506;28;20556;-80
2023/02/15 22:42:37;;;;;;;0.00;0.00;;;;;;;-145.06;100.00;53916.69;10321479;28;20270;-79
2023/02/15 22:47:38;;;;;;;0.00;0.00;;;;;;;-145.06;100.00;53916.69;10339464;28;20061;-79
2023/02/15 22:52:38;;;;;;;0.00;0.00;;;;;;;-145.06;100.00;53900.50;10337454;28;20274;-80
2023/02/15 22:57:38;;;;;;;0.00;0.00;;;;;;;-145.06;100.00;53924.78;10357307;28;20042;-80
2023/02/15 23:02:39;;;;;;;0.00;0.00;;;;;;;-145.06;100.00;53896.44;10369422;28;20026;-79
2023/02/15 23:07:39;;;;;;;0.00;0.00;;;;;;;-145.06;100.00;53898.47;10336263;28;20304;-79
2023/02/15 23:13:24;;;;;;;0.00;0.00;;;;;;;-145.06;100.00;53926.81;10340795;28;20022;-79
2023/02/15 23:18:34;;;;;;;0.00;0.00;;;;;;;-145.06;100.00;53896.44;10346794;28;20038;-80
2023/02/15 23:23:39;;;;;;;;;;;;;;;-145.06;100.00;53902.50;10356871;28;20030;-80
2023/02/15 23:28:39;;;;;;;0.00;0.00;;;;;;;-145.06;100.00;53900.50;10331240;28;19909;-79
2023/02/15 23:33:40;;;;;;;0.00;0.00;;;;;;;-145.06;100.00;53886.31;10332762;28;20031;-80
2023/02/15 23:38:40;;;;;;;0.00;0.00;;;;;;;-145.06;100.00;53904.53;10330505;28;20034;-81
2023/02/15 23:43:46;;;;;;;0.00;0.00;;;;;;;-145.06;100.00;53928.84;10328993;28;20258;-82
2023/02/15 23:48:46;;;;;;;0.00;0.00;;;;;;;-145.06;100.00;53908.59;10340666;28;20257;-80